createdAt,value
2018-09-14T00:01:35.801Z,85.05
2018-09-14T00:04:04.575Z,85.61
2018-09-14T00:06:33.388Z,85.10
2018-09-14T00:09:02.176Z,84.10
2018-09-14T00:11:31.108Z,84.65
2018-09-14T00:13:59.900Z,86.77
2018-09-14T00:16:28.727Z,86.40
2018-09-14T00:18:57.517Z,85.42
2018-09-14T00:21:31.151Z,87.42
2018-09-14T00:24:00.032Z,90.84
2018-09-14T00:26:28.851Z,92.19
2018-09-14T00:28:57.693Z,92.86
2018-09-14T00:31:26.520Z,91.83
2018-09-14T00:33:55.313Z,92.21
2018-09-14T00:36:24.221Z,91.09
2018-09-14T00:38:53.132Z,89.87
2018-09-14T00:41:21.934Z,89.06
2018-09-14T00:43:50.767Z,88.69
2018-09-14T00:46:19.586Z,87.53
2018-09-14T00:48:48.493Z,88.20
2018-09-14T00:51:17.280Z,87.81
2018-09-14T00:53:46.131Z,87.82
2018-09-14T00:56:14.952Z,88.20
2018-09-14T00:58:43.783Z,88.07
2018-09-14T01:01:12.626Z,88.05
2018-09-14T01:03:41.468Z,88.15
2018-09-14T01:06:10.280Z,87.43
2018-09-14T01:08:39.121Z,87.32
2018-09-14T01:11:07.948Z,86.71
2018-09-14T01:13:36.863Z,86.69
2018-09-14T01:16:05.731Z,87.13
2018-09-14T01:18:34.603Z,87.12
2018-09-14T01:21:03.438Z,88.26
2018-09-14T01:23:32.256Z,89.88
2018-09-14T01:26:01.096Z,89.57
2018-09-14T01:28:29.975Z,88.26
2018-09-14T01:30:59.011Z,86.94
2018-09-14T01:33:27.823Z,88.25
2018-09-14T01:36:02.332Z,88.38
2018-09-14T01:38:31.419Z,86.46
2018-09-14T01:41:00.235Z,86.37
2018-09-14T01:43:29.072Z,87.30
2018-09-14T01:45:57.908Z,85.88
2018-09-14T01:48:26.707Z,86.65
2018-09-14T01:50:55.612Z,86.84
2018-09-14T01:53:24.457Z,86.85
2018-09-14T01:55:53.284Z,86.49
2018-09-14T01:58:22.095Z,86.81
2018-09-14T02:00:50.985Z,87.19
2018-09-14T02:03:19.914Z,87.58
2018-09-14T02:05:48.788Z,86.51
2018-09-14T02:08:17.565Z,86.78
2018-09-14T02:10:46.406Z,85.73
2018-09-14T02:13:15.165Z,86.23
2018-09-14T02:15:44.040Z,86.57
2018-09-14T02:18:12.799Z,86.29
2018-09-14T02:20:41.620Z,86.15
2018-09-14T02:23:10.404Z,86.34
2018-09-14T02:25:39.321Z,86.45
2018-09-14T02:28:08.131Z,89.03
2018-09-14T02:30:37.012Z,91.56
2018-09-14T02:33:05.859Z,90.63
2018-09-14T02:35:34.669Z,88.51
2018-09-14T02:38:03.493Z,87.70
2018-09-14T02:40:32.360Z,87.85
2018-09-14T02:43:01.208Z,87.44
2018-09-14T02:45:30.004Z,87.74
2018-09-14T02:47:58.858Z,87.34
2018-09-14T02:50:27.651Z,86.66
2018-09-14T02:52:56.576Z,85.61
2018-09-14T02:55:25.450Z,85.41
2018-09-14T02:57:54.276Z,86.61
2018-09-14T03:00:23.090Z,88.20
2018-09-14T03:02:51.884Z,88.43
2018-09-14T03:05:20.698Z,87.73
2018-09-14T03:07:49.535Z,87.99
2018-09-14T03:10:18.334Z,86.44
2018-09-14T03:12:47.147Z,86.89
2018-09-14T03:15:15.933Z,86.52
2018-09-14T03:17:44.811Z,87.44
2018-09-14T03:20:13.577Z,87.85
2018-09-14T03:22:42.381Z,87.87
2018-09-14T03:25:11.179Z,88.50
2018-09-14T03:27:39.999Z,88.69
2018-09-14T03:30:08.967Z,87.34
2018-09-14T03:32:37.807Z,87.12
2018-09-14T03:35:06.607Z,87.61
2018-09-14T03:37:35.385Z,88.09
2018-09-14T03:40:04.377Z,86.23
2018-09-14T03:42:33.311Z,86.57
2018-09-14T03:45:02.507Z,87.85
2018-09-14T03:47:31.337Z,86.65
2018-09-14T03:50:00.159Z,85.75
2018-09-14T03:52:28.955Z,85.08
2018-09-14T03:54:57.828Z,85.02
2018-09-14T03:57:26.992Z,85.02
2018-09-14T03:59:55.723Z,84.81
2018-09-14T04:02:24.488Z,86.28
2018-09-14T04:04:53.270Z,88.92
2018-09-14T04:07:22.094Z,88.95
2018-09-14T04:09:50.924Z,87.25
2018-09-14T04:12:19.744Z,88.50
2018-09-14T04:14:48.577Z,90.53
2018-09-14T04:17:17.389Z,89.58
2018-09-14T04:19:46.383Z,87.33
2018-09-14T04:22:15.147Z,87.05
2018-09-14T04:24:43.963Z,87.93
2018-09-14T04:27:12.744Z,88.19
2018-09-14T04:29:41.548Z,90.94
2018-09-14T04:32:10.398Z,92.50
2018-09-14T04:34:39.212Z,93.22
2018-09-14T04:37:08.158Z,93.71
2018-09-14T04:39:36.930Z,94.02
2018-09-14T04:42:05.813Z,94.52
2018-09-14T04:44:34.664Z,94.38
2018-09-14T04:47:03.524Z,94.48
2018-09-14T04:49:32.535Z,92.93
2018-09-14T04:52:01.450Z,91.53
2018-09-14T04:54:30.221Z,89.99
2018-09-14T04:56:59.103Z,89.23
2018-09-14T04:59:27.871Z,89.56
2018-09-14T05:01:56.678Z,89.32
2018-09-14T05:04:25.460Z,89.94
2018-09-14T05:06:54.322Z,89.38
2018-09-14T05:09:23.135Z,89.58
2018-09-14T05:11:51.990Z,89.99
2018-09-14T05:14:20.804Z,89.71
2018-09-14T05:16:49.854Z,89.37
2018-09-14T05:19:18.652Z,89.95
2018-09-14T05:21:47.900Z,91.54
2018-09-14T05:24:16.737Z,90.26
2018-09-14T05:26:45.452Z,89.97
2018-09-14T05:29:14.271Z,90.23
2018-09-14T05:31:43.041Z,90.34
2018-09-14T05:34:11.884Z,91.28
2018-09-14T05:36:40.678Z,90.53
2018-09-14T05:39:10.040Z,91.05
2018-09-14T05:41:38.816Z,91.14
2018-09-14T05:44:07.690Z,90.60
2018-09-14T05:46:36.515Z,90.70
2018-09-14T05:49:05.431Z,91.55
2018-09-14T05:51:34.542Z,93.42
2018-09-14T05:54:03.386Z,93.33
2018-09-14T05:56:32.198Z,92.31
2018-09-14T05:59:01.096Z,92.56
2018-09-14T06:01:29.978Z,93.56
2018-09-14T06:03:58.771Z,93.92
2018-09-14T06:06:27.565Z,94.49
2018-09-14T06:08:56.404Z,94.00
2018-09-14T06:11:25.448Z,94.40
2018-09-14T06:13:54.283Z,93.40
2018-09-14T06:16:23.072Z,92.32
2018-09-14T06:18:51.936Z,93.83
2018-09-14T06:21:20.725Z,93.71
2018-09-14T06:23:49.618Z,93.20
2018-09-14T06:26:18.425Z,93.46
2018-09-14T06:28:47.478Z,92.40
2018-09-14T06:31:16.435Z,91.96
2018-09-14T06:33:51.793Z,90.56
2018-09-14T06:36:20.666Z,89.48
2018-09-14T06:38:49.483Z,90.14
2018-09-14T06:41:18.392Z,90.29
2018-09-14T06:43:47.230Z,90.07
2018-09-14T06:46:16.051Z,88.49
2018-09-14T06:48:44.884Z,89.86
2018-09-14T06:51:13.704Z,89.71
2018-09-14T06:53:42.492Z,89.72
2018-09-14T06:56:11.296Z,88.47
2018-09-14T06:58:40.275Z,89.02
2018-09-14T07:01:09.152Z,88.33
2018-09-14T07:03:37.912Z,88.14
2018-09-14T07:06:06.743Z,88.17
2018-09-14T07:08:35.496Z,88.52
2018-09-14T07:11:04.359Z,88.04
2018-09-14T07:13:34.170Z,86.53
2018-09-14T07:16:03.108Z,87.45
2018-09-14T07:18:31.877Z,86.81
2018-09-14T07:21:00.708Z,84.32
2018-09-14T07:23:29.467Z,83.25
2018-09-14T07:25:58.355Z,83.29
2018-09-14T07:28:27.201Z,80.51
2018-09-14T07:30:56.032Z,79.78
2018-09-14T07:33:24.846Z,82.63
2018-09-14T07:35:53.604Z,82.28
2018-09-14T07:38:22.515Z,79.40
2018-09-14T07:40:51.514Z,78.91
2018-09-14T07:43:20.351Z,75.92
2018-09-14T07:45:49.195Z,75.19
2018-09-14T07:48:18.094Z,74.96
2018-09-14T07:50:46.892Z,74.14
2018-09-14T07:53:15.708Z,72.36
2018-09-14T07:55:44.463Z,71.85
2018-09-14T07:58:13.563Z,72.04
2018-09-14T08:00:42.408Z,74.04
2018-09-14T08:03:11.296Z,70.84
2018-09-14T08:05:40.203Z,68.35
2018-09-14T08:08:09.019Z,68.77
2018-09-14T08:10:37.931Z,67.12
2018-09-14T08:13:07.226Z,66.93
2018-09-14T08:15:36.069Z,65.42
2018-09-14T08:18:05.366Z,64.86
2018-09-14T08:20:34.128Z,64.75
2018-09-14T08:23:02.923Z,63.73
2018-09-14T08:25:31.921Z,62.79
2018-09-14T08:28:00.767Z,65.02
2018-09-14T08:30:29.612Z,63.68
2018-09-14T08:32:58.385Z,65.13
2018-09-14T08:35:27.245Z,62.59
2018-09-14T08:37:56.020Z,60.37
2018-09-14T08:40:24.996Z,60.91
2018-09-14T08:42:53.828Z,59.08
2018-09-14T08:45:22.700Z,59.41
2018-09-14T08:47:51.556Z,59.01
2018-09-14T08:50:20.328Z,58.87
2018-09-14T08:52:49.317Z,56.77
2018-09-14T08:55:18.181Z,55.85
2018-09-14T08:57:46.949Z,56.28
2018-09-14T09:00:20.507Z,55.86
2018-09-14T09:02:50.048Z,53.09
2018-09-14T09:05:18.944Z,54.90
2018-09-14T09:07:47.862Z,52.67
2018-09-14T09:10:17.152Z,51.43
2018-09-14T09:12:46.072Z,51.65
2018-09-14T09:15:14.992Z,51.70
2018-09-14T09:17:44.042Z,50.53
2018-09-14T09:20:13.069Z,50.46
2018-09-14T09:22:41.845Z,50.63
2018-09-14T09:25:10.971Z,50.06
2018-09-14T09:27:39.844Z,49.27
2018-09-14T09:30:08.775Z,48.57
2018-09-14T09:32:37.660Z,48.35
2018-09-14T09:35:06.540Z,49.81
2018-09-14T09:37:35.770Z,49.50
2018-09-14T09:40:04.663Z,50.20
2018-09-14T09:42:34.172Z,48.50
2018-09-14T09:45:03.003Z,49.97
2018-09-14T09:47:31.843Z,49.26
2018-09-14T09:50:00.639Z,47.37
2018-09-14T09:52:29.489Z,48.78
2018-09-14T09:54:58.349Z,48.42
2018-09-14T09:57:27.172Z,48.17
2018-09-14T09:59:55.948Z,48.39
2018-09-14T10:02:33.191Z,48.10
2018-09-14T10:05:07.585Z,49.32
2018-09-14T10:07:36.536Z,48.54
2018-09-14T10:10:05.405Z,48.66
2018-09-14T10:12:34.618Z,48.00
2018-09-14T10:15:03.585Z,48.79
2018-09-14T10:17:32.406Z,48.86
2018-09-14T10:20:01.389Z,49.80
2018-09-14T10:22:30.184Z,50.85
2018-09-14T10:24:59.011Z,50.31
2018-09-14T10:27:27.851Z,49.88
2018-09-14T10:29:56.649Z,50.16
2018-09-14T10:32:25.412Z,48.77
2018-09-14T10:34:54.236Z,49.33
2018-09-14T10:37:23.075Z,49.47
2018-09-14T10:39:52.181Z,49.40
2018-09-14T10:42:21.046Z,49.04
2018-09-14T10:44:49.884Z,49.21
2018-09-14T10:47:18.678Z,50.12
2018-09-14T10:49:47.816Z,50.07
2018-09-14T10:52:16.672Z,50.04
2018-09-14T10:54:45.569Z,48.02
2018-09-14T10:57:14.353Z,48.39
2018-09-14T10:59:43.217Z,49.01
2018-09-14T11:02:12.002Z,48.39
2018-09-14T11:04:40.851Z,48.14
2018-09-14T11:07:09.723Z,48.02
2018-09-14T11:09:38.452Z,48.38
2018-09-14T11:12:07.371Z,48.42
2018-09-14T11:14:36.171Z,47.84
2018-09-14T11:17:05.061Z,47.13
2018-09-14T11:19:33.951Z,47.25
2018-09-14T11:22:02.804Z,47.57
2018-09-14T11:24:31.613Z,46.12
2018-09-14T11:27:00.444Z,44.62
2018-09-14T11:29:29.292Z,44.39
2018-09-14T11:31:58.106Z,44.22
2018-09-14T11:34:26.897Z,43.35
2018-09-14T11:36:55.750Z,42.89
2018-09-14T11:39:24.504Z,43.98
2018-09-14T11:41:53.413Z,44.18
2018-09-14T11:44:22.192Z,42.49
2018-09-14T11:46:51.334Z,41.80
2018-09-14T11:49:20.152Z,41.74
2018-09-14T11:51:49.007Z,43.22
2018-09-14T11:54:17.960Z,44.60
2018-09-14T11:56:46.663Z,43.62
2018-09-14T11:59:15.784Z,42.30
2018-09-14T12:01:44.572Z,43.99
2018-09-14T12:04:13.423Z,42.48
2018-09-14T12:06:42.254Z,42.42
2018-09-14T12:09:12.129Z,43.25
2018-09-14T12:11:41.372Z,42.86
2018-09-14T12:14:10.707Z,42.38
2018-09-14T12:16:39.455Z,41.23
2018-09-14T12:19:08.366Z,40.98
2018-09-14T12:21:37.145Z,42.59
2018-09-14T12:24:05.954Z,40.80
2018-09-14T12:26:34.711Z,43.10
2018-09-14T12:29:03.566Z,41.44
2018-09-14T12:31:32.512Z,39.92
2018-09-14T12:34:01.371Z,40.14
2018-09-14T12:36:30.176Z,39.27
2018-09-14T12:38:59.008Z,38.31
2018-09-14T12:41:27.814Z,39.14
2018-09-14T12:43:56.618Z,38.10
2018-09-14T12:46:25.719Z,37.14
2018-09-14T12:48:54.489Z,37.23
2018-09-14T12:51:23.396Z,37.87
2018-09-14T12:53:52.164Z,38.63
2018-09-14T12:56:21.117Z,39.55
2018-09-14T12:58:49.885Z,39.75
2018-09-14T13:01:18.756Z,38.74
2018-09-14T13:03:47.524Z,38.96
2018-09-14T13:06:16.353Z,38.09
2018-09-14T13:08:45.187Z,38.29
2018-09-14T13:11:14.052Z,38.14
2018-09-14T13:13:42.840Z,37.55
2018-09-14T13:16:11.672Z,38.97
2018-09-14T13:18:40.482Z,38.32
2018-09-14T13:21:09.480Z,38.27
2018-09-14T13:23:38.551Z,36.63
2018-09-14T13:26:07.388Z,37.87
2018-09-14T13:28:36.191Z,38.21
2018-09-14T13:31:05.032Z,38.50
2018-09-14T13:33:33.863Z,37.31
2018-09-14T13:36:02.694Z,38.03
2018-09-14T13:38:31.574Z,37.86
2018-09-14T13:41:00.393Z,37.75
2018-09-14T13:43:29.206Z,37.08
2018-09-14T13:45:58.040Z,37.23
2018-09-14T13:48:26.860Z,36.61
2018-09-14T13:50:55.623Z,36.23
2018-09-14T13:53:24.448Z,36.11
2018-09-14T13:55:53.216Z,36.65
2018-09-14T13:58:22.115Z,36.54
2018-09-14T14:00:50.906Z,37.37
2018-09-14T14:03:19.707Z,35.87
2018-09-14T14:05:48.479Z,37.97
2018-09-14T14:08:17.385Z,37.71
2018-09-14T14:10:46.571Z,36.96
2018-09-14T14:13:15.432Z,37.33
2018-09-14T14:15:44.231Z,36.88
2018-09-14T14:18:13.048Z,36.72
2018-09-14T14:20:42.192Z,36.25
2018-09-14T14:23:11.121Z,37.29
2018-09-14T14:25:39.863Z,36.25
2018-09-14T14:28:09.043Z,36.43
2018-09-14T14:30:37.841Z,36.12
2018-09-14T14:33:06.994Z,36.90
2018-09-14T14:35:35.847Z,36.94
2018-09-14T14:38:04.715Z,38.65
2018-09-14T14:40:33.856Z,37.29
2018-09-14T14:43:02.714Z,38.21
2018-09-14T14:45:31.472Z,39.32
2018-09-14T14:48:00.400Z,38.51
2018-09-14T14:50:29.252Z,38.64
2018-09-14T14:52:58.040Z,39.19
2018-09-14T14:55:26.873Z,39.59
2018-09-14T14:57:55.713Z,40.14
2018-09-14T15:00:24.601Z,40.91
2018-09-14T15:02:53.367Z,40.38
2018-09-14T15:05:22.455Z,40.50
2018-09-14T15:07:51.236Z,41.29
2018-09-14T15:10:20.068Z,40.41
2018-09-14T15:12:48.969Z,38.60
2018-09-14T15:15:17.784Z,38.92
2018-09-14T15:17:46.580Z,39.38
2018-09-14T15:20:15.413Z,39.51
2018-09-14T15:22:44.183Z,39.72
2018-09-14T15:25:13.049Z,39.13
2018-09-14T15:27:41.850Z,40.27
2018-09-14T15:30:10.701Z,40.66
2018-09-14T15:32:39.763Z,40.87
2018-09-14T15:35:08.743Z,40.63
2018-09-14T15:37:37.560Z,41.55
2018-09-14T15:40:06.609Z,41.35
2018-09-14T15:42:35.449Z,42.06
2018-09-14T15:45:04.743Z,41.98
2018-09-14T15:47:33.539Z,43.27
2018-09-14T15:50:02.432Z,43.38
2018-09-14T15:52:31.291Z,43.77
2018-09-14T15:55:00.072Z,43.43
2018-09-14T15:57:28.897Z,44.48
2018-09-14T15:59:57.705Z,44.41
2018-09-14T16:02:26.607Z,43.47
2018-09-14T16:04:55.416Z,44.18
2018-09-14T16:07:24.305Z,43.79
2018-09-14T16:09:53.123Z,43.59
2018-09-14T16:12:22.002Z,44.02
2018-09-14T16:14:50.911Z,45.03
2018-09-14T16:17:20.023Z,45.10
2018-09-14T16:19:48.810Z,45.98
2018-09-14T16:22:17.954Z,46.19
2018-09-14T16:24:46.791Z,46.22
2018-09-14T16:27:15.714Z,45.93
2018-09-14T16:29:44.483Z,46.26
2018-09-14T16:32:13.287Z,46.60
2018-09-14T16:34:43.665Z,47.75
2018-09-14T16:37:12.554Z,47.90
2018-09-14T16:39:41.596Z,48.13
2018-09-14T16:42:10.387Z,48.86
2018-09-14T16:44:40.894Z,48.13
2018-09-14T16:47:10.271Z,49.28
2018-09-14T16:49:39.520Z,49.51
2018-09-14T16:52:08.335Z,49.57
2018-09-14T16:54:37.143Z,49.45
2018-09-14T16:57:05.976Z,50.09
2018-09-14T16:59:34.807Z,50.28
2018-09-14T17:02:03.640Z,51.30
2018-09-14T17:04:32.520Z,51.46
2018-09-14T17:07:01.356Z,51.51
2018-09-14T17:09:30.243Z,52.04
2018-09-14T17:11:59.112Z,52.29
2018-09-14T17:14:27.992Z,52.52
2018-09-14T17:16:56.962Z,53.40
2018-09-14T17:19:25.791Z,53.09
2018-09-14T17:21:55.311Z,53.66
2018-09-14T17:24:24.220Z,53.56
2018-09-14T17:26:52.989Z,52.59
2018-09-14T17:29:21.834Z,53.11
2018-09-14T17:31:50.667Z,54.84
2018-09-14T17:34:19.505Z,55.40
2018-09-14T17:36:48.856Z,55.71
2018-09-14T17:39:17.626Z,56.52
2018-09-14T17:41:46.856Z,56.20
2018-09-14T17:44:15.732Z,56.37
2018-09-14T17:46:44.582Z,57.26
2018-09-14T17:49:13.358Z,57.16
2018-09-14T17:51:42.232Z,57.29
2018-09-14T17:54:11.036Z,57.51
2018-09-14T17:56:40.730Z,57.83
2018-09-14T17:59:09.468Z,58.12
2018-09-14T18:01:38.363Z,57.77
2018-09-14T18:04:07.622Z,58.09
2018-09-14T18:06:36.503Z,57.46
2018-09-14T18:09:09.211Z,58.99
2018-09-14T18:11:38.694Z,59.68
2018-09-14T18:14:07.588Z,60.23
2018-09-14T18:16:36.783Z,59.89
2018-09-14T18:19:05.946Z,59.66
2018-09-14T18:21:34.896Z,60.18
2018-09-14T18:24:03.721Z,60.73
2018-09-14T18:26:32.559Z,61.53
2018-09-14T18:29:01.340Z,61.51
2018-09-14T18:31:30.227Z,60.98
2018-09-14T18:33:59.053Z,60.69
2018-09-14T18:36:27.815Z,60.52
2018-09-14T18:38:56.613Z,62.00
2018-09-14T18:41:25.383Z,61.88
2018-09-14T18:43:54.234Z,61.97
2018-09-14T18:46:23.054Z,62.01
2018-09-14T18:48:51.865Z,62.04
2018-09-14T18:51:20.957Z,62.78
2018-09-14T18:53:49.764Z,63.20
2018-09-14T18:56:18.610Z,63.12
2018-09-14T18:58:47.444Z,63.80
2018-09-14T19:01:16.191Z,64.04
2018-09-14T19:03:45.029Z,63.82
2018-09-14T19:06:13.840Z,64.17
2018-09-14T19:08:42.747Z,63.89
2018-09-14T19:11:11.563Z,64.85
2018-09-14T19:13:40.420Z,64.52
2018-09-14T19:16:09.200Z,65.20
2018-09-14T19:18:38.035Z,65.67
2018-09-14T19:21:06.936Z,66.18
2018-09-14T19:23:35.838Z,65.83
2018-09-14T19:26:04.661Z,65.13
2018-09-14T19:28:33.591Z,65.70
2018-09-14T19:31:02.771Z,65.95
2018-09-14T19:33:31.849Z,66.21
2018-09-14T19:36:00.715Z,67.17
2018-09-14T19:38:29.627Z,67.95
2018-09-14T19:40:58.415Z,68.42
2018-09-14T19:43:27.294Z,69.11
2018-09-14T19:45:56.168Z,69.00
2018-09-14T19:48:24.965Z,70.58
2018-09-14T19:50:53.810Z,70.28
2018-09-14T19:53:22.587Z,69.88
2018-09-14T19:55:51.432Z,69.65
2018-09-14T19:58:20.272Z,70.22
2018-09-14T20:00:49.251Z,70.14
2018-09-14T20:03:18.063Z,69.44
2018-09-14T20:05:46.864Z,69.41
2018-09-14T20:08:15.644Z,69.36
2018-09-14T20:10:44.536Z,68.99
2018-09-14T20:13:13.329Z,69.20
2018-09-14T20:15:47.135Z,68.45
2018-09-14T20:18:15.966Z,68.12
2018-09-14T20:20:45.084Z,68.39
2018-09-14T20:23:14.191Z,68.29
2018-09-14T20:25:43.024Z,68.72
2018-09-14T20:28:12.123Z,68.67
2018-09-14T20:30:41.035Z,69.16
2018-09-14T20:33:10.109Z,69.46
2018-09-14T20:35:39.052Z,70.21
2018-09-14T20:38:07.959Z,70.17
2018-09-14T20:40:36.814Z,69.95
2018-09-14T20:43:05.646Z,69.89
2018-09-14T20:45:34.395Z,69.47
2018-09-14T20:48:03.267Z,69.13
2018-09-14T20:50:32.063Z,69.76
2018-09-14T20:53:00.911Z,69.04
2018-09-14T20:55:29.694Z,69.93
2018-09-14T20:57:58.732Z,69.23
2018-09-14T21:00:27.608Z,69.40
2018-09-14T21:02:56.448Z,69.30
2018-09-14T21:05:25.227Z,70.34
2018-09-14T21:07:54.134Z,70.72
2018-09-14T21:10:22.886Z,70.09
2018-09-14T21:12:51.830Z,69.63
2018-09-14T21:15:20.628Z,69.09
2018-09-14T21:17:49.452Z,70.26
2018-09-14T21:20:18.268Z,69.57
2018-09-14T21:22:47.133Z,69.77
2018-09-14T21:25:15.904Z,70.26
2018-09-14T21:27:44.727Z,70.27
2018-09-14T21:30:13.474Z,70.37
2018-09-14T21:32:42.267Z,69.98
2018-09-14T21:35:11.024Z,70.00
2018-09-14T21:37:39.912Z,69.62
2018-09-14T21:40:08.719Z,69.68
2018-09-14T21:42:37.548Z,70.19
2018-09-14T21:45:06.427Z,70.15
2018-09-14T21:47:35.214Z,69.95
2018-09-14T21:50:04.200Z,70.68
2018-09-14T21:52:32.970Z,70.43
2018-09-14T21:55:01.924Z,70.42
2018-09-14T21:57:30.811Z,69.96
2018-09-14T22:00:04.211Z,70.51
2018-09-14T22:02:33.124Z,70.23
2018-09-14T22:05:01.949Z,70.68
2018-09-14T22:07:30.718Z,70.92
2018-09-14T22:09:59.540Z,69.73
2018-09-14T22:12:28.355Z,69.10
2018-09-14T22:14:57.233Z,69.33
2018-09-14T22:17:26.003Z,69.05
2018-09-14T22:19:54.790Z,68.97
2018-09-14T22:22:23.555Z,69.18
2018-09-14T22:24:52.408Z,68.94
2018-09-14T22:27:21.492Z,67.80
2018-09-14T22:29:50.333Z,67.79
2018-09-14T22:32:19.090Z,68.26
2018-09-14T22:34:47.911Z,68.51
2018-09-14T22:37:16.685Z,68.02
2018-09-14T22:39:45.628Z,68.40
2018-09-14T22:42:14.384Z,68.46
2018-09-14T22:44:43.155Z,68.79
2018-09-14T22:47:11.995Z,68.79
2018-09-14T22:49:40.788Z,69.32
2018-09-14T22:52:09.749Z,69.37
2018-09-14T22:54:38.512Z,69.76
2018-09-14T22:57:07.346Z,69.18
2018-09-14T22:59:36.107Z,69.54
2018-09-14T23:02:04.948Z,69.27
2018-09-14T23:04:33.787Z,70.01
2018-09-14T23:07:02.616Z,69.45
2018-09-14T23:09:31.378Z,69.39
2018-09-14T23:12:00.217Z,69.41
2018-09-14T23:14:29.361Z,69.15
2018-09-14T23:16:58.253Z,69.71
2018-09-14T23:19:27.084Z,70.10
2018-09-14T23:21:55.900Z,69.60
2018-09-14T23:24:24.668Z,70.36
2018-09-14T23:26:53.575Z,70.02
2018-09-14T23:29:22.417Z,70.30
2018-09-14T23:31:51.204Z,70.58
2018-09-14T23:34:20.020Z,70.14
2018-09-14T23:36:48.799Z,70.60
2018-09-14T23:39:17.660Z,70.27
2018-09-14T23:41:46.491Z,70.06
2018-09-14T23:44:15.278Z,70.44
2018-09-14T23:46:44.059Z,71.03
2018-09-14T23:49:13.207Z,71.38
2018-09-14T23:51:41.996Z,71.17
2018-09-14T23:54:10.862Z,70.63
2018-09-14T23:56:39.615Z,71.57
2018-09-14T23:59:08.489Z,71.65
